PHKO

Ellison Onizuka Kona International at Keahole Airport

Kailua/Kona, Hawaii, USA
PHKO 200520Z 2006/2106 VRB05KT P6SM SCT035 BKN050 FM202100 22010KT P6SM SCT050 FM210400 VRB06KT P6SM SCT035 BKN050
Issued Valid From Valid To
Jan-20 @ 05:20 UTC
(6 hours ago)
Jan-20 @ 06:00 UTC
(5 hours ago)
Jan-21 @ 06:00 UTC
(in 19 hours)
Jan-20 @ 06:00 to Jan-20 @ 21:00
PHKO 200520Z 2006/2106 VRB05KT P6SM SCT035 BKN050
Wind Visibility Clouds
Variable at 5 knots Greater than 6 miles
  • Scattered at 3,500' AGL
  • Broken at 5,000' AGL
From Jan-20 @ 21:00 to Jan-21 @ 04:00
FM202100 22010KT P6SM SCT050
Wind Visibility Clouds
220° at 10 knots Greater than 6 miles
  • Scattered at 5,000' AGL
From Jan-21 @ 04:00 to Jan-21 @ 06:00
FM210400 VRB06KT P6SM SCT035 BKN050
Wind Visibility Clouds
Variable at 6 knots Greater than 6 miles
  • Scattered at 3,500' AGL
  • Broken at 5,000' AGL
PHKO 200520Z 2006/2106 VRB05KT P6SM SCT035 BKN050 FM202100 22010KT P6SM SCT050 FM210400 VRB06KT P6SM SCT035 BKN050
Issued Jan-20 @ 05:20 UTC
(6 hours ago)
Valid From Jan-20 @ 06:00 UTC
(5 hours ago)
Valid To Jan-21 @ 06:00 UTC
(in 19 hours)
Jan-20 @ 06:00 - Jan-20 @ 21:00
Wind Visibility
Variable at 5 knots Greater than 6 miles
Clouds
  • Scattered at 3,500' AGL
  • Broken at 5,000' AGL
From Jan-20 @ 21:00 - Jan-21 @ 04:00
Wind Visibility
220° at 10 knots Greater than 6 miles
Clouds
  • Scattered at 5,000' AGL
From Jan-21 @ 04:00 - Jan-21 @ 06:00
Wind Visibility
Variable at 6 knots Greater than 6 miles
Clouds
  • Scattered at 3,500' AGL
  • Broken at 5,000' AGL